createdAt,value
2022-11-28T00:45:48.844Z,17.3
2022-11-28T00:55:51.385Z,17.3
2022-11-28T01:15:54.842Z,17.3
2022-11-28T01:25:57.429Z,17.3
2022-11-28T01:46:01.803Z,17.3
2022-11-28T01:56:03.792Z,17.3
2022-11-28T02:16:08.671Z,17.3
2022-11-28T02:26:11.077Z,17.3
2022-11-28T02:56:18.392Z,17.3
2022-11-28T03:06:20.354Z,17.3
2022-11-28T03:16:22.436Z,17.3
2022-11-28T04:46:41.940Z,17.4
2022-11-28T05:36:51.733Z,17.4
2022-11-28T07:57:22.557Z,17.4
2022-11-28T08:17:26.600Z,17.3
2022-11-28T08:47:33.628Z,17.4
2022-11-28T08:57:35.628Z,17.4
2022-11-28T09:27:42.527Z,17.5
2022-11-28T09:57:49.102Z,17.6
2022-11-28T10:27:56.339Z,17.7
2022-11-28T10:37:58.304Z,17.7
2022-11-28T10:48:04.068Z,17.7
2022-11-28T11:08:05.063Z,17.7
2022-11-28T11:18:07.323Z,17.7
2022-11-28T11:28:09.586Z,17.7
2022-11-28T11:38:11.689Z,17.7
2022-11-28T11:48:13.482Z,17.7
2022-11-28T11:58:15.362Z,17.8
2022-11-28T12:08:17.383Z,17.8
2022-11-28T12:18:19.480Z,17.8
2022-11-28T12:38:23.364Z,17.8
2022-11-28T12:48:25.351Z,17.8
2022-11-28T12:58:27.468Z,17.8
2022-11-28T13:08:29.253Z,17.8
2022-11-28T13:18:31.602Z,17.8
2022-11-28T13:28:33.457Z,17.9
2022-11-28T13:38:36.837Z,17.9
2022-11-28T13:48:57.866Z,17.9
2022-11-28T13:58:39.807Z,17.9
2022-11-28T14:08:41.528Z,17.9
2022-11-28T14:18:56.570Z,17.9
2022-11-28T14:28:45.234Z,17.9
2022-11-28T14:38:46.949Z,17.9
2022-11-28T14:48:49.070Z,17.9
2022-11-28T14:58:50.915Z,17.9
2022-11-28T15:18:55.236Z,18
2022-11-28T15:38:58.843Z,18
2022-11-28T15:49:01.268Z,18
2022-11-28T15:59:03.009Z,18
2022-11-28T16:09:04.872Z,18
2022-11-28T16:19:07.218Z,18
2022-11-28T16:29:09.493Z,18
2022-11-28T16:49:14.098Z,18
2022-11-28T16:59:16.191Z,18
2022-11-28T17:09:18.764Z,18
2022-11-28T17:19:21.178Z,18
2022-11-28T17:29:23.014Z,18
2022-11-28T17:39:24.768Z,18
2022-11-28T17:49:26.816Z,18
2022-11-28T17:59:29.397Z,18.1
2022-11-28T18:09:31.277Z,18.1
2022-11-28T18:19:33.339Z,18.1
2022-11-28T18:29:35.760Z,18.1
2022-11-28T18:39:38.211Z,18.1
2022-11-28T18:49:39.922Z,18.1
2022-11-28T18:59:46.231Z,18.1
2022-11-28T19:09:44.436Z,18.1
2022-11-28T19:19:46.191Z,18.1
2022-11-28T19:29:48.446Z,18.1
2022-11-28T19:39:51.008Z,18.1
2022-11-28T19:49:52.962Z,18.1
2022-11-28T19:59:54.667Z,18.1
2022-11-28T20:09:56.656Z,18.1
2022-11-28T20:19:58.794Z,18.1
2022-11-28T20:30:00.668Z,18.1
2022-11-28T20:30:22.658Z,18.2
2022-11-28T20:40:10.849Z,18.2
2022-11-28T21:10:17.338Z,18.2
2022-11-28T21:20:19.684Z,18.2
2022-11-28T21:50:27.075Z,18.2
2022-11-28T22:00:51.927Z,18.2
2022-11-28T22:10:31.441Z,18.2
2022-11-28T22:20:33.215Z,18.2
2022-11-28T22:30:35.017Z,18.2
2022-11-28T22:40:37.058Z,18.2
2022-11-28T23:00:41.735Z,18.2
2022-11-28T23:10:43.876Z,18.2
